Ship Status Report: callsign BATFR34

sailwx.info

Track history (hours):
 
Tides and Currents Weather Stations Pressure Air Temp Water Temp Dewpoint Dewpoint Depression Visibility Wind Speed Wind Dir Waves Ship Positions

Callsign BATFR34 (name unknown)

Last reported at 2015-Mar-31 16:00 UTC. Time now 2015-Mar-31 16:52 UTC.
Position N 47°36' W 006°42'.

Wind from 320 at 13 knots

Barometer 1029.5 mb
Water temperature 13.0 ° C

Date/timePositionNaut miles runAvg speedWind from/ knotsBaromVisibWave heightAir tempDewpointWater temp
2015-Mar-31 16:00N 47°36' W 006°42'8 4.0 320 / 131029.5 13.0
2015-Mar-31 14:00N 47°36' W 006°54'6 6.0 300 / 181028.5 13.0
2015-Mar-31 13:00N 47°42' W 006°54'4 2.0 290 / 171028.2 13.0
2015-Mar-31 11:00N 47°42' W 007°00'6 6.0 300 / 171027.1 13.0
2015-Mar-31 10:00N 47°36' W 007°00'0 0.0 300 / 161026.6 13.0
2015-Mar-31 09:00N 47°36' W 007°00'4 2.0 300 / 191025.8 12.9
2015-Mar-31 07:00N 47°36' W 006°54'4 0.8 270 / 161023.8 13.0
2015-Mar-31 02:00N 47°36' W 006°48'0 0.0 260 / 251020.5 13.2
2015-Mar-31 01:00N 47°36' W 006°48'7 7.2 250 / 231020.3 13.0
2015-Mar-31 00:00N 47°42' W 006°54'0 0.0 260 / 221020.6 13.0
2015-Mar-30 23:00N 47°42' W 006°54'4 4.0 280 / 201020.7 13.0
2015-Mar-30 22:00N 47°42' W 007°00'6 3.0 270 / 231020.5 13.2
2015-Mar-30 20:00N 47°36' W 007°00'4 0.8 260 / 211020.8 13.2
2015-Mar-30 15:00N 47°36' W 006°54'0 0.0 280 / 201021.5 13.2
2015-Mar-30 14:00N 47°36' W 006°54'0 0.0 250 / 171021.4 13.0
2015-Mar-30 13:00N 47°36' W 006°54'4 4.0 260 / 121022.1 13.2
2015-Mar-30 12:00N 47°36' W 007°00'4 4.0 270 / 151021.8 13.2
2015-Mar-30 11:00N 47°36' W 006°54'0 0.0 280 / 131021.7 13.0
2015-Mar-30 10:00N 47°36' W 006°54'4 4.0 280 / 141021.2 13.0
2015-Mar-30 09:00N 47°36' W 006°48'4 4.0 270 / 131021.0 13.0
2015-Mar-30 08:00N 47°36' W 006°54'4 1.0 270 / 131021.0 13.2
2015-Mar-30 04:00N 47°36' W 006°48'0 0.0 260 / 181017.0 13.0
2015-Mar-30 03:00N 47°36' W 006°48'0 0.0 260 / 151017.0 13.0
2015-Mar-30 01:00N 47°36' W 006°48'0 0.0 290 / 201016.5 13.0
2015-Mar-30 00:00N 47°36' W 006°48'4 4.0 260 / 201016.4 13.0
2015-Mar-29 23:00N 47°36' W 006°54'0 0.0 250 / 251016.3 13.2
2015-Mar-29 22:00N 47°36' W 006°54'0 0.0 260 / 241016.4 13.2
2015-Mar-29 20:00N 47°36' W 006°54'0 0.0 270 / 191015.8 13.0
2015-Mar-29 19:00N 47°36' W 006°54'4 2.0 260 / 241016.0 13.0
2015-Mar-29 17:00N 47°36' W 006°48'7 3.6 250 / 201015.6 13.0
2015-Mar-29 15:00N 47°42' W 006°42'0 0.0 260 / 201015.6 12.9
2015-Mar-29 14:00N 47°42' W 006°42'7 3.6 260 / 211015.7 12.9
2015-Mar-29 12:00N 47°48' W 006°48'7 2.4 250 / 271016.8 12.9
2015-Mar-29 09:00N 47°42' W 006°54'6 3.0 260 / 221017.2 13.0
2015-Mar-29 07:00N 47°36' W 006°54'4 2.0 260 / 201018.3 13.0
2015-Mar-29 05:00N 47°36' W 007°00'14 1.9 240 / 181018.6 13.2
2015-Mar-28 22:00N 47°42' W 006°42'4 4.0 270 / 171020.8 13.0
2015-Mar-28 21:00N 47°42' W 006°48'7 3.6 270 / 181020.9 12.9
2015-Mar-28 19:00N 47°36' W 006°42'4 4.0 270 / 161020.9 12.9
2015-Mar-28 18:00N 47°36' W 006°36'4 2.0 270 / 171020.3 12.9
2015-Mar-28 16:00N 47°36' W 006°30'4 1.3 250 / 181020.8 12.9
2015-Mar-28 13:00N 47°36' W 006°24'14 0.8 230 / 161021.1 12.9
2015-Mar-27 18:00N 47°24' W 006°12'0 0.0 270 / 151024.3 13.0
2015-Mar-27 17:00N 47°24' W 006°12'4 4.1 270 / 201023.9 13.0
2015-Mar-27 16:00N 47°24' W 006°06'4 1.4 270 / 181023.8 12.9
2015-Mar-27 13:00N 47°24' W 006°00'4 4.1 280 / 161023.5 13.0
2015-Mar-27 12:00N 47°24' W 006°06'7 3.6 280 / 131023.4 13.0
2015-Mar-27 10:00N 47°30' W 006°12'4 2.0 260 / 171023.1 12.9
2015-Mar-27 08:00N 47°30' W 006°18'0 0.0 170 / 151022.2 13.0
2015-Mar-27 07:00N 47°30' W 006°18'4 4.1 180 / 141022.2 13.0
2015-Mar-27 06:00N 47°30' W 006°24'7 3.6 200 / 121022.7 12.9
2015-Mar-27 04:00N 47°24' W 006°18'4 2.0 230 / 111022.9 12.9
2015-Mar-27 02:00N 47°24' W 006°12'4 2.0 230 / 71023.1 13.0
2015-Mar-27 00:00N 47°24' W 006°06'0 0.0 310 / 41023.2 13.0
2015-Mar-26 23:00N 47°24' W 006°06'0 0.0 320 / 51022.7 13.0
2015-Mar-26 22:00N 47°24' W 006°06'7 7.2 320 / 81022.3 13.0
2015-Mar-26 21:00N 47°30' W 006°12'0 0.0 310 / 71021.5 13.0
2015-Mar-26 20:00N 47°30' W 006°12'4 4.1 300 / 121020.8 13.0
2015-Mar-26 19:00N 47°30' W 006°18'0 0.0 310 / 101019.8 13.0
2015-Mar-26 18:00N 47°30' W 006°18'0 0.0 350 / 131018.7 12.9
2015-Mar-26 17:00N 47°30' W 006°18'6 6.0 340 / 131018.0 13.2
2015-Mar-26 16:00N 47°24' W 006°18'4 4.1 330 / 141017.1 13.2
2015-Mar-26 15:00N 47°24' W 006°12'0 0.0 310 / 141016.7 13.2
2015-Mar-26 14:00N 47°24' W 006°12'4 4.1 310 / 141015.8 13.2
2015-Mar-26 13:00N 47°24' W 006°06'4 4.1 330 / 191015.5 13.2
2015-Mar-26 12:00N 47°24' W 006°12'6 6.0 330 / 181015.0 13.2
2015-Mar-26 11:00N 47°30' W 006°12'0 0.0 320 / 171014.2 13.2
2015-Mar-26 10:00N 47°30' W 006°12'7 3.6 320 / 191013.0 13.0
2015-Mar-26 08:00N 47°36' W 006°18'6 6.0 330 / 211010.0 12.9
2015-Mar-26 07:00N 47°30' W 006°18'0 0.0 310 / 171009.2 13.0
2015-Mar-26 06:00N 47°30' W 006°18'0 0.0 320 / 181008.3 13.0
2015-Mar-26 05:00N 47°30' W 006°18'6 6.0 290 / 151007.8 13.0
2015-Mar-26 04:00N 47°24' W 006°18'4 4.1 270 / 161007.5 13.0
2015-Mar-26 03:00N 47°24' W 006°12'0 0.0 240 / 211007.9 13.0
2015-Mar-26 02:00N 47°24' W 006°12'4 4.1 240 / 191009.2 13.2
2015-Mar-26 01:00N 47°24' W 006°06'0 0.0 200 / 231010.5 13.0
2015-Mar-26 00:00N 47°24' W 006°06'4 4.1 230 / 201011.4 13.0
2015-Mar-25 23:00N 47°24' W 006°12'6 6.0 230 / 201012.4 13.0
2015-Mar-25 22:00N 47°30' W 006°12'0 0.0 230 / 181013.2 13.0
2015-Mar-25 21:00N 47°30' W 006°12'6 3.0 220 / 151013.9 13.0
2015-Mar-25 19:00N 47°36' W 006°12'7 7.2 240 / 111015.1 12.7
2015-Mar-25 18:00N 47°30' W 006°18'0 0.0 290 / 101015.6 12.9
2015-Mar-25 16:00N 47°30' W 006°18'7 7.2 310 / 101016.2 13.2
2015-Mar-25 15:00N 47°24' W 006°12'0 0.0 320 / 91016.4 13.2
2015-Mar-25 14:00N 47°24' W 006°12'0 0.0 300 / 91017.0 13.0
2015-Mar-25 13:00N 47°24' W 006°12'7 7.2 310 / 91017.3 13.0
2015-Mar-25 12:00N 47°18' W 006°06'0 0.0 290 / 111017.5 13.0
2015-Mar-25 11:00N 47°18' W 006°06'4 4.1 310 / 111017.3 13.0
2015-Mar-25 10:00N 47°18' W 006°00'0 0.0 320 / 121017.2 13.0
2015-Mar-25 09:00N 47°18' W 006°00'0 0.0 350 / 151016.8 13.0
2015-Mar-25 08:00N 47°18' W 006°00'4 4.1 010 / 131016.3 13.2
2015-Mar-25 07:00N 47°18' W 006°06'6 6.0 340 / 101016.3 13.0
2015-Mar-25 06:00N 47°24' W 006°06'0 0.0 350 / 111016.1 13.0
2015-Mar-25 05:00N 47°24' W 006°06'7 3.6 020 / 111015.7 13.0
2015-Mar-25 03:00N 47°18' W 006°00'4 4.1 360 / 171015.7 12.9
2015-Mar-25 02:00N 47°18' W 005°54'0 0.0 020 / 161015.7 13.0
2015-Mar-25 01:00N 47°18' W 005°54'7 7.2 1016.0 12.9
2015-Mar-25 00:00N 47°24' W 005°48'4 4.1 350 / 141016.1 12.9
2015-Mar-24 23:00N 47°24' W 005°42'0 0.0 300 / 161015.7 12.9
2015-Mar-24 22:00N 47°24' W 005°42'0 0.0 350 / 191016.0 12.9
2015-Mar-24 21:00N 47°24' W 005°42'6 6.0 340 / 201015.7 12.9
2015-Mar-24 20:00N 47°30' W 005°42'0 0.0 340 / 141015.0 12.9
2015-Mar-24 19:00N 47°30' W 005°42'0 0.0 330 / 91014.6 12.9
2015-Mar-24 18:00N 47°30' W 005°42'0 0.0 340 / 131014.2 12.7
2015-Mar-24 17:00N 47°30' W 005°42'0 0.0 030 / 141014.4 12.7
2015-Mar-24 16:00N 47°30' W 005°42'6 6.0 350 / 181014.4 12.9
2015-Mar-24 15:00N 47°24' W 005°42'0 0.0 360 / 181014.6 12.9
2015-Mar-24 14:00N 47°24' W 005°42'8 8.1 350 / 111014.9 12.9
2015-Mar-24 13:00N 47°24' W 005°30'2010.1 350 / 191015.0 12.9
2015-Mar-24 11:00N 47°36' W 005°06'8 8.1 360 / 201014.8 12.7
2015-Mar-24 10:00N 47°36' W 004°54'1010.1 350 / 191014.4 12.7
2015-Mar-24 09:00N 47°42' W 004°42'8 8.1 360 / 201013.9 12.4
2015-Mar-24 08:00N 47°42' W 004°30'1010.1 350 / 211013.2 11.7
2015-Mar-24 07:00N 47°48' W 004°18'   320 / 41013.3 11.0
Track history (hours):
 
Tides and Currents Weather Stations Pressure Air Temp Water Temp Dewpoint Dewpoint Depression Visibility Wind Speed Wind Dir Waves Ship Positions

Callsign BATFR34 (name unknown)

Last reported at 2015-Mar-31 16:00 UTC. Time now 2015-Mar-31 16:52 UTC.
Position N 47°36' W 006°42'.

Wind from 320 at 13 knots

Barometer 1029.5 mb
Water temperature 13.0 ° C

Date/timePositionNaut miles runAvg speedWind from/ knotsBaromVisibWave heightAir tempDewpointWater temp
2015-Mar-31 16:00N 47°36' W 006°42'8 4.0 320 / 131029.5 13.0
2015-Mar-31 14:00N 47°36' W 006°54'6 6.0 300 / 181028.5 13.0
2015-Mar-31 13:00N 47°42' W 006°54'4 2.0 290 / 171028.2 13.0
2015-Mar-31 11:00N 47°42' W 007°00'6 6.0 300 / 171027.1 13.0
2015-Mar-31 10:00N 47°36' W 007°00'0 0.0 300 / 161026.6 13.0
2015-Mar-31 09:00N 47°36' W 007°00'4 2.0 300 / 191025.8 12.9
2015-Mar-31 07:00N 47°36' W 006°54'4 0.8 270 / 161023.8 13.0
2015-Mar-31 02:00N 47°36' W 006°48'0 0.0 260 / 251020.5 13.2
2015-Mar-31 01:00N 47°36' W 006°48'7 7.2 250 / 231020.3 13.0
2015-Mar-31 00:00N 47°42' W 006°54'0 0.0 260 / 221020.6 13.0
2015-Mar-30 23:00N 47°42' W 006°54'4 4.0 280 / 201020.7 13.0
2015-Mar-30 22:00N 47°42' W 007°00'6 3.0 270 / 231020.5 13.2
2015-Mar-30 20:00N 47°36' W 007°00'4 0.8 260 / 211020.8 13.2
2015-Mar-30 15:00N 47°36' W 006°54'0 0.0 280 / 201021.5 13.2
2015-Mar-30 14:00N 47°36' W 006°54'0 0.0 250 / 171021.4 13.0
2015-Mar-30 13:00N 47°36' W 006°54'4 4.0 260 / 121022.1 13.2
2015-Mar-30 12:00N 47°36' W 007°00'4 4.0 270 / 151021.8 13.2
2015-Mar-30 11:00N 47°36' W 006°54'0 0.0 280 / 131021.7 13.0
2015-Mar-30 10:00N 47°36' W 006°54'4 4.0 280 / 141021.2 13.0
2015-Mar-30 09:00N 47°36' W 006°48'4 4.0 270 / 131021.0 13.0
2015-Mar-30 08:00N 47°36' W 006°54'4 1.0 270 / 131021.0 13.2
2015-Mar-30 04:00N 47°36' W 006°48'0 0.0 260 / 181017.0 13.0
2015-Mar-30 03:00N 47°36' W 006°48'0 0.0 260 / 151017.0 13.0
2015-Mar-30 01:00N 47°36' W 006°48'0 0.0 290 / 201016.5 13.0
2015-Mar-30 00:00N 47°36' W 006°48'4 4.0 260 / 201016.4 13.0
2015-Mar-29 23:00N 47°36' W 006°54'0 0.0 250 / 251016.3 13.2
2015-Mar-29 22:00N 47°36' W 006°54'0 0.0 260 / 241016.4 13.2
2015-Mar-29 20:00N 47°36' W 006°54'0 0.0 270 / 191015.8 13.0
2015-Mar-29 19:00N 47°36' W 006°54'4 2.0 260 / 241016.0 13.0
2015-Mar-29 17:00N 47°36' W 006°48'7 3.6 250 / 201015.6 13.0
2015-Mar-29 15:00N 47°42' W 006°42'0 0.0 260 / 201015.6 12.9
2015-Mar-29 14:00N 47°42' W 006°42'7 3.6 260 / 211015.7 12.9
2015-Mar-29 12:00N 47°48' W 006°48'7 2.4 250 / 271016.8 12.9
2015-Mar-29 09:00N 47°42' W 006°54'6 3.0 260 / 221017.2 13.0
2015-Mar-29 07:00N 47°36' W 006°54'4 2.0 260 / 201018.3 13.0
2015-Mar-29 05:00N 47°36' W 007°00'14 1.9 240 / 181018.6 13.2
2015-Mar-28 22:00N 47°42' W 006°42'4 4.0 270 / 171020.8 13.0
2015-Mar-28 21:00N 47°42' W 006°48'7 3.6 270 / 181020.9 12.9
2015-Mar-28 19:00N 47°36' W 006°42'4 4.0 270 / 161020.9 12.9
2015-Mar-28 18:00N 47°36' W 006°36'4 2.0 270 / 171020.3 12.9
2015-Mar-28 16:00N 47°36' W 006°30'4 1.3 250 / 181020.8 12.9
2015-Mar-28 13:00N 47°36' W 006°24'14 0.8 230 / 161021.1 12.9
2015-Mar-27 18:00N 47°24' W 006°12'0 0.0 270 / 151024.3 13.0
2015-Mar-27 17:00N 47°24' W 006°12'4 4.1 270 / 201023.9 13.0
2015-Mar-27 16:00N 47°24' W 006°06'4 1.4 270 / 181023.8 12.9
2015-Mar-27 13:00N 47°24' W 006°00'4 4.1 280 / 161023.5 13.0
2015-Mar-27 12:00N 47°24' W 006°06'7 3.6 280 / 131023.4 13.0
2015-Mar-27 10:00N 47°30' W 006°12'4 2.0 260 / 171023.1 12.9
2015-Mar-27 08:00N 47°30' W 006°18'0 0.0 170 / 151022.2 13.0
2015-Mar-27 07:00N 47°30' W 006°18'4 4.1 180 / 141022.2 13.0
2015-Mar-27 06:00N 47°30' W 006°24'7 3.6 200 / 121022.7 12.9
2015-Mar-27 04:00N 47°24' W 006°18'4 2.0 230 / 111022.9 12.9
2015-Mar-27 02:00N 47°24' W 006°12'4 2.0 230 / 71023.1 13.0
2015-Mar-27 00:00N 47°24' W 006°06'0 0.0 310 / 41023.2 13.0
2015-Mar-26 23:00N 47°24' W 006°06'0 0.0 320 / 51022.7 13.0
2015-Mar-26 22:00N 47°24' W 006°06'7 7.2 320 / 81022.3 13.0
2015-Mar-26 21:00N 47°30' W 006°12'0 0.0 310 / 71021.5 13.0
2015-Mar-26 20:00N 47°30' W 006°12'4 4.1 300 / 121020.8 13.0
2015-Mar-26 19:00N 47°30' W 006°18'0 0.0 310 / 101019.8 13.0
2015-Mar-26 18:00N 47°30' W 006°18'0 0.0 350 / 131018.7 12.9
2015-Mar-26 17:00N 47°30' W 006°18'6 6.0 340 / 131018.0 13.2
2015-Mar-26 16:00N 47°24' W 006°18'4 4.1 330 / 141017.1 13.2
2015-Mar-26 15:00N 47°24' W 006°12'0 0.0 310 / 141016.7 13.2
2015-Mar-26 14:00N 47°24' W 006°12'4 4.1 310 / 141015.8 13.2
2015-Mar-26 13:00N 47°24' W 006°06'4 4.1 330 / 191015.5 13.2
2015-Mar-26 12:00N 47°24' W 006°12'6 6.0 330 / 181015.0 13.2
2015-Mar-26 11:00N 47°30' W 006°12'0 0.0 320 / 171014.2 13.2
2015-Mar-26 10:00N 47°30' W 006°12'7 3.6 320 / 191013.0 13.0
2015-Mar-26 08:00N 47°36' W 006°18'6 6.0 330 / 211010.0 12.9
2015-Mar-26 07:00N 47°30' W 006°18'0 0.0 310 / 171009.2 13.0
2015-Mar-26 06:00N 47°30' W 006°18'0 0.0 320 / 181008.3 13.0
2015-Mar-26 05:00N 47°30' W 006°18'6 6.0 290 / 151007.8 13.0
2015-Mar-26 04:00N 47°24' W 006°18'4 4.1 270 / 161007.5 13.0
2015-Mar-26 03:00N 47°24' W 006°12'0 0.0 240 / 211007.9 13.0
2015-Mar-26 02:00N 47°24' W 006°12'4 4.1 240 / 191009.2 13.2
2015-Mar-26 01:00N 47°24' W 006°06'0 0.0 200 / 231010.5 13.0
2015-Mar-26 00:00N 47°24' W 006°06'4 4.1 230 / 201011.4 13.0
2015-Mar-25 23:00N 47°24' W 006°12'6 6.0 230 / 201012.4 13.0
2015-Mar-25 22:00N 47°30' W 006°12'0 0.0 230 / 181013.2 13.0
2015-Mar-25 21:00N 47°30' W 006°12'6 3.0 220 / 151013.9 13.0
2015-Mar-25 19:00N 47°36' W 006°12'7 7.2 240 / 111015.1 12.7
2015-Mar-25 18:00N 47°30' W 006°18'0 0.0 290 / 101015.6 12.9
2015-Mar-25 16:00N 47°30' W 006°18'7 7.2 310 / 101016.2 13.2
2015-Mar-25 15:00N 47°24' W 006°12'0 0.0 320 / 91016.4 13.2
2015-Mar-25 14:00N 47°24' W 006°12'0 0.0 300 / 91017.0 13.0
2015-Mar-25 13:00N 47°24' W 006°12'7 7.2 310 / 91017.3 13.0
2015-Mar-25 12:00N 47°18' W 006°06'0 0.0 290 / 111017.5 13.0
2015-Mar-25 11:00N 47°18' W 006°06'4 4.1 310 / 111017.3 13.0
2015-Mar-25 10:00N 47°18' W 006°00'0 0.0 320 / 121017.2 13.0
2015-Mar-25 09:00N 47°18' W 006°00'0 0.0 350 / 151016.8 13.0
2015-Mar-25 08:00N 47°18' W 006°00'4 4.1 010 / 131016.3 13.2
2015-Mar-25 07:00N 47°18' W 006°06'6 6.0 340 / 101016.3 13.0
2015-Mar-25 06:00N 47°24' W 006°06'0 0.0 350 / 111016.1 13.0
2015-Mar-25 05:00N 47°24' W 006°06'7 3.6 020 / 111015.7 13.0
2015-Mar-25 03:00N 47°18' W 006°00'4 4.1 360 / 171015.7 12.9
2015-Mar-25 02:00N 47°18' W 005°54'0 0.0 020 / 161015.7 13.0
2015-Mar-25 01:00N 47°18' W 005°54'7 7.2 1016.0 12.9
2015-Mar-25 00:00N 47°24' W 005°48'4 4.1 350 / 141016.1 12.9
2015-Mar-24 23:00N 47°24' W 005°42'0 0.0 300 / 161015.7 12.9
2015-Mar-24 22:00N 47°24' W 005°42'0 0.0 350 / 191016.0 12.9
2015-Mar-24 21:00N 47°24' W 005°42'6 6.0 340 / 201015.7 12.9
2015-Mar-24 20:00N 47°30' W 005°42'0 0.0 340 / 141015.0 12.9
2015-Mar-24 19:00N 47°30' W 005°42'0 0.0 330 / 91014.6 12.9
2015-Mar-24 18:00N 47°30' W 005°42'0 0.0 340 / 131014.2 12.7
2015-Mar-24 17:00N 47°30' W 005°42'0 0.0 030 / 141014.4 12.7
2015-Mar-24 16:00N 47°30' W 005°42'6 6.0 350 / 181014.4 12.9
2015-Mar-24 15:00N 47°24' W 005°42'0 0.0 360 / 181014.6 12.9
2015-Mar-24 14:00N 47°24' W 005°42'8 8.1 350 / 111014.9 12.9
2015-Mar-24 13:00N 47°24' W 005°30'2010.1 350 / 191015.0 12.9
2015-Mar-24 11:00N 47°36' W 005°06'8 8.1 360 / 201014.8 12.7
2015-Mar-24 10:00N 47°36' W 004°54'1010.1 350 / 191014.4 12.7
2015-Mar-24 09:00N 47°42' W 004°42'8 8.1 360 / 201013.9 12.4
2015-Mar-24 08:00N 47°42' W 004°30'1010.1 350 / 211013.2 11.7
2015-Mar-24 07:00N 47°48' W 004°18'   320 / 41013.3 11.0

Dump ship's entire track history